Terminal Aerodrome Forecast
Issued by NWS

Home | Current Version | Previous Version | Text Only | Print | Product List | Glossary On
Versions: 1 2 3 4 5 6 7 8 9 10 11 12 13 14 15 16 17
000
FTUS44 KLZK 022339
TAFHRO
TAF
KHRO 022339Z 0300/0324 31006KT P6SM VCSH OVC035
      TEMPO 0300/0302 BKN025
     FM030300 30004KT P6SM SCT025 BKN050
     FM030900 VRB02KT P6SM SCT050
      TEMPO 0309/0313 3SM BR BKN015
     FM031300 32008KT P6SM BKN050=

USA.gov is the U.S. government's official web portal to all federal, state and local government web resources and services.